createdAt,value
2022-12-08T00:00:18.347Z,31.87
2022-12-08T00:01:25.102Z,29.37
2022-12-08T00:02:29.236Z,24.50
2022-12-08T00:03:34.311Z,21.81
2022-12-08T00:04:38.499Z,31.33
2022-12-08T00:05:49.567Z,27.06
2022-12-08T00:06:53.492Z,24.44
2022-12-08T00:07:57.510Z,29.69
2022-12-08T00:09:01.476Z,25.69
2022-12-08T00:10:25.175Z,23.56
2022-12-08T00:11:15.626Z,23.38
2022-12-08T00:12:19.616Z,27.31
2022-12-08T00:13:23.624Z,25.81
2022-12-08T00:14:30.109Z,27.19
2022-12-08T00:15:33.999Z,26.81
2022-12-08T00:16:38.004Z,29.56
2022-12-08T00:17:41.899Z,29.31
2022-12-08T00:18:46.334Z,30.56
2022-12-08T00:19:50.303Z,30.88
2022-12-08T00:20:58.900Z,28.62
2022-12-08T00:22:03.150Z,28.38
2022-12-08T00:23:07.075Z,27.31
2022-12-08T00:24:11.168Z,11.06
2022-12-08T00:25:15.098Z,25.56
2022-12-08T00:26:19.016Z,23.87
2022-12-08T00:27:30.090Z,24.50
2022-12-08T00:28:34.490Z,21.31
2022-12-08T00:29:38.661Z,25.88
2022-12-08T00:30:43.529Z,26.56
2022-12-08T00:31:48.001Z,27.56
2022-12-08T00:32:51.989Z,24.19
2022-12-08T00:33:55.958Z,21.37
2022-12-08T00:35:00.044Z,24.50
2022-12-08T00:36:12.494Z,27.06
2022-12-08T00:37:16.347Z,23.25
2022-12-08T00:38:20.225Z,26.87
2022-12-08T00:39:24.187Z,26.69
2022-12-08T00:40:28.388Z,29.00
2022-12-08T00:41:32.248Z,28.20
2022-12-08T00:42:36.116Z,25.25
2022-12-08T00:43:40.057Z,23.44
2022-12-08T00:44:45.665Z,22.31
2022-12-08T00:45:49.648Z,22.56
2022-12-08T00:46:53.812Z,23.62
2022-12-08T00:47:57.739Z,28.13
2022-12-08T00:49:02.066Z,25.75
2022-12-08T00:50:07.192Z,29.19
2022-12-08T00:51:11.304Z,23.69
2022-12-08T00:52:15.266Z,23.19
2022-12-08T00:53:19.314Z,18.94
2022-12-08T00:54:31.629Z,27.31
2022-12-08T00:55:35.624Z,23.81
2022-12-08T00:56:39.902Z,24.44
2022-12-08T00:57:43.874Z,23.38
2022-12-08T00:58:47.824Z,24.25
2022-12-08T00:59:53.521Z,23.56
2022-12-08T01:00:57.786Z,25.60
2022-12-08T01:02:05.630Z,20.94
2022-12-08T01:03:23.157Z,20.50
2022-12-08T01:04:44.345Z,24.25
2022-12-08T01:05:49.931Z,17.87
2022-12-08T01:07:03.199Z,21.33
2022-12-08T01:08:10.499Z,24.44
2022-12-08T01:09:17.022Z,25.50
2022-12-08T01:10:21.134Z,24.67
2022-12-08T01:11:25.104Z,22.56
2022-12-08T01:12:30.741Z,21.00
2022-12-08T01:13:34.869Z,21.62
2022-12-08T01:14:38.802Z,21.87
2022-12-08T01:15:42.770Z,19.69
2022-12-08T01:16:47.316Z,22.00
2022-12-08T01:17:51.387Z,20.12
2022-12-08T01:18:56.908Z,19.62
2022-12-08T01:20:01.465Z,19.69
2022-12-08T01:21:07.596Z,22.19
2022-12-08T01:22:11.630Z,23.00
2022-12-08T01:23:15.836Z,21.31
2022-12-08T01:24:21.617Z,22.19
2022-12-08T01:25:25.481Z,25.19
2022-12-08T01:26:30.026Z,23.69
2022-12-08T01:27:34.055Z,22.19
2022-12-08T01:28:38.733Z,22.87
2022-12-08T01:29:42.684Z,23.06
2022-12-08T01:30:46.871Z,20.81
2022-12-08T01:31:50.882Z,22.56
2022-12-08T01:32:54.836Z,23.44
2022-12-08T01:33:58.747Z,22.94
2022-12-08T01:35:02.640Z,23.44
2022-12-08T01:36:07.032Z,23.93
2022-12-08T01:37:11.145Z,22.87
2022-12-08T01:38:15.184Z,22.62
2022-12-08T01:39:22.975Z,21.94
2022-12-08T01:40:27.130Z,24.31
2022-12-08T01:41:33.640Z,24.06
2022-12-08T01:42:37.626Z,22.56
2022-12-08T01:43:47.269Z,23.69
2022-12-08T01:45:00.136Z,23.69
2022-12-08T01:46:04.115Z,24.12
2022-12-08T01:47:10.093Z,22.81
2022-12-08T01:48:17.123Z,24.31
2022-12-08T01:49:26.906Z,22.69
2022-12-08T01:50:32.888Z,24.00
2022-12-08T01:51:39.826Z,24.44
2022-12-08T01:53:01.919Z,26.00
2022-12-08T01:54:07.475Z,25.31
2022-12-08T01:55:17.192Z,28.25
2022-12-08T01:56:30.356Z,22.75
2022-12-08T01:57:45.975Z,26.44
2022-12-08T01:58:52.981Z,26.62
2022-12-08T02:00:03.297Z,27.06
2022-12-08T02:01:07.716Z,25.75
2022-12-08T02:02:13.321Z,30.88
2022-12-08T02:03:26.040Z,34.13
2022-12-08T02:04:33.054Z,30.50
2022-12-08T02:05:40.048Z,25.62
2022-12-08T02:06:47.299Z,30.62
2022-12-08T02:07:52.663Z,32.67
2022-12-08T02:08:57.998Z,31.06
2022-12-08T02:10:03.487Z,31.56
2022-12-08T02:11:10.118Z,29.87
2022-12-08T02:12:14.427Z,31.87
2022-12-08T02:13:21.175Z,31.47
2022-12-08T02:14:25.723Z,33.19
2022-12-08T02:16:02.365Z,33.63
2022-12-08T02:17:18.248Z,34.69
2022-12-08T02:18:28.089Z,35.31
2022-12-08T02:19:51.674Z,38.47
2022-12-08T02:21:04.903Z,40.69
2022-12-08T02:22:12.086Z,38.13
2022-12-08T02:23:37.082Z,39.87
2022-12-08T02:24:59.070Z,39.93
2022-12-08T02:26:39.358Z,40.73
2022-12-08T02:28:06.906Z,44.56
2022-12-08T02:29:39.017Z,38.06
2022-12-08T02:31:07.016Z,43.33
2022-12-08T02:32:26.127Z,43.60
2022-12-08T02:33:42.070Z,40.67
2022-12-08T02:34:51.998Z,42.25
2022-12-08T02:36:13.681Z,39.88
2022-12-08T02:37:35.535Z,16.93
2022-12-08T02:38:51.520Z,32.00
2022-12-08T02:39:58.734Z,33.13
2022-12-08T02:41:34.653Z,30.62
2022-12-08T02:42:44.319Z,28.56
2022-12-08T02:43:52.922Z,30.56
2022-12-08T02:45:11.954Z,32.00
2022-12-08T02:46:34.432Z,32.40
2022-12-08T02:47:39.220Z,28.19
2022-12-08T02:48:43.977Z,30.12
2022-12-08T02:49:48.457Z,25.81
2022-12-08T02:50:52.630Z,28.44
2022-12-08T02:52:20.752Z,28.87
2022-12-08T02:53:29.320Z,26.25
2022-12-08T02:54:34.701Z,30.20
2022-12-08T02:56:10.200Z,28.20
2022-12-08T02:57:23.117Z,28.00
2022-12-08T02:58:46.744Z,29.25
2022-12-08T03:00:09.107Z,29.44
2022-12-08T03:01:21.941Z,31.50
2022-12-08T03:02:29.030Z,30.00
2022-12-08T03:03:47.365Z,32.06
2022-12-08T03:05:06.665Z,25.00
2022-12-08T03:06:30.240Z,30.75
2022-12-08T03:07:46.229Z,28.31
2022-12-08T03:09:22.619Z,27.33
2022-12-08T03:10:48.922Z,28.00
2022-12-08T03:11:58.763Z,30.75
2022-12-08T03:13:08.339Z,32.69
2022-12-08T03:14:15.433Z,35.69
2022-12-08T03:15:22.460Z,32.73
2022-12-08T03:16:29.933Z,33.87
2022-12-08T03:17:35.464Z,29.75
2022-12-08T03:18:44.159Z,29.63
2022-12-08T03:19:50.252Z,28.62
2022-12-08T03:20:55.175Z,29.44
2022-12-08T03:22:01.604Z,24.87
2022-12-08T03:23:13.162Z,30.62
2022-12-08T03:24:19.834Z,30.67
2022-12-08T03:25:27.300Z,30.50
2022-12-08T03:26:43.558Z,29.63
2022-12-08T03:27:48.827Z,29.37
2022-12-08T03:28:53.246Z,27.94
2022-12-08T03:30:00.126Z,24.94
2022-12-08T03:31:07.392Z,31.37
2022-12-08T03:32:51.005Z,25.94
2022-12-08T03:33:59.076Z,29.75
2022-12-08T03:35:08.349Z,25.44
2022-12-08T03:36:16.421Z,29.93
2022-12-08T03:37:29.495Z,30.12
2022-12-08T03:38:45.051Z,29.37
2022-12-08T03:40:15.505Z,27.67
2022-12-08T03:41:34.953Z,29.12
2022-12-08T03:44:02.560Z,29.50
2022-12-08T03:45:12.894Z,28.56
2022-12-08T03:46:53.110Z,19.75
2022-12-08T03:47:57.096Z,27.87
2022-12-08T03:49:16.913Z,29.31
2022-12-08T03:50:30.667Z,28.94
2022-12-08T03:51:54.121Z,31.87
2022-12-08T03:53:04.537Z,29.00
2022-12-08T03:54:14.882Z,30.20
2022-12-08T03:55:21.421Z,26.53
2022-12-08T03:56:30.254Z,24.69
2022-12-08T03:58:07.308Z,29.44
2022-12-08T03:58:57.418Z,27.80
2022-12-08T04:00:10.550Z,24.33
2022-12-08T04:01:43.849Z,16.94
2022-12-08T04:03:16.448Z,28.81
2022-12-08T04:31:03.380Z,32.93
2022-12-08T10:30:42.553Z,29.87
2022-12-08T11:29:26.846Z,33.63
2022-12-08T12:07:42.689Z,31.94
2022-12-08T12:09:08.822Z,32.31
2022-12-08T12:10:27.431Z,32.31
2022-12-08T12:11:52.376Z,30.62
2022-12-08T12:13:21.862Z,38.50
2022-12-08T12:14:40.902Z,35.81
2022-12-08T12:16:00.994Z,32.69
2022-12-08T12:17:07.569Z,34.25
2022-12-08T12:18:27.492Z,31.37
2022-12-08T12:19:34.478Z,35.53
2022-12-08T12:20:53.831Z,33.20
2022-12-08T12:35:04.023Z,31.07
2022-12-08T12:39:16.987Z,31.73
2022-12-08T12:40:26.742Z,34.81
2022-12-08T12:41:50.042Z,38.73
2022-12-08T12:43:01.555Z,38.88
2022-12-08T12:44:14.257Z,31.31
2022-12-08T12:45:21.381Z,33.75
2022-12-08T12:46:31.010Z,38.38
2022-12-08T12:47:58.251Z,36.63
2022-12-08T12:49:27.964Z,31.25
2022-12-08T12:50:43.437Z,33.33
2022-12-08T12:51:52.748Z,31.37
2022-12-08T12:52:56.060Z,24.87
2022-12-08T12:54:20.837Z,32.63
2022-12-08T18:54:04.349Z,35.63
2022-12-08T19:13:57.112Z,41.56
2022-12-08T19:15:21.308Z,41.80
2022-12-08T19:19:01.478Z,41.60
2022-12-08T19:34:40.332Z,39.44
2022-12-08T19:35:50.719Z,39.07
2022-12-08T19:37:07.108Z,39.88
2022-12-08T19:38:12.759Z,38.67
2022-12-08T19:39:32.841Z,39.88
2022-12-08T19:40:49.801Z,39.69
2022-12-08T19:44:45.953Z,37.07
2022-12-08T20:04:07.402Z,36.47
2022-12-08T20:05:46.009Z,33.13
2022-12-08T20:21:03.491Z,29.27
2022-12-08T20:24:38.917Z,35.06
2022-12-08T20:25:50.973Z,31.87
2022-12-08T20:28:18.107Z,32.63
2022-12-08T20:29:37.611Z,32.13
2022-12-08T20:31:56.191Z,33.94
2022-12-08T20:34:53.790Z,32.38
2022-12-08T20:37:06.886Z,34.13
2022-12-08T20:38:21.796Z,32.00
2022-12-08T20:40:50.953Z,33.75
2022-12-08T20:42:03.893Z,32.56
2022-12-08T20:43:10.952Z,31.25
2022-12-08T21:08:10.180Z,26.44
2022-12-08T21:09:13.525Z,24.53
2022-12-08T21:10:20.988Z,27.69
2022-12-08T21:51:59.233Z,35.38
2022-12-08T21:53:50.792Z,31.12
2022-12-08T21:55:07.161Z,31.93
2022-12-08T21:56:11.713Z,35.06
2022-12-08T21:57:26.662Z,28.33
2022-12-08T21:58:28.913Z,29.12
2022-12-08T21:59:53.778Z,28.87
2022-12-08T22:02:42.537Z,30.50
2022-12-08T22:03:41.166Z,35.27
2022-12-08T22:06:19.037Z,35.40
2022-12-08T22:57:49.462Z,32.56
2022-12-08T22:58:56.692Z,32.63
2022-12-08T23:01:09.448Z,31.13
2022-12-08T23:20:05.577Z,34.38
2022-12-08T23:21:16.862Z,32.81
2022-12-08T23:22:24.040Z,32.63
2022-12-08T23:23:29.802Z,32.69
2022-12-08T23:24:36.874Z,32.40
2022-12-08T23:25:46.079Z,34.93
2022-12-08T23:26:56.524Z,37.13
2022-12-08T23:28:01.537Z,37.38
2022-12-08T23:29:09.077Z,38.87
2022-12-08T23:30:20.020Z,32.06
2022-12-08T23:31:22.855Z,37.47
2022-12-08T23:32:31.463Z,43.27
2022-12-08T23:33:52.461Z,39.80
2022-12-08T23:54:03.987Z,32.31
2022-12-08T23:55:18.914Z,71.27
2022-12-08T23:56:29.910Z,58.27
2022-12-08T23:57:32.332Z,55.40
2022-12-08T23:59:58.842Z,43.87
